createdAt,value
2022-08-02T00:00:59.571Z,68.88
2022-08-02T00:01:59.588Z,68.88
2022-08-02T00:02:59.499Z,68.88
2022-08-02T00:03:59.495Z,68.88
2022-08-02T00:04:59.473Z,68.88
2022-08-02T00:05:59.461Z,68.88
2022-08-02T00:06:59.447Z,68.98
2022-08-02T00:07:59.436Z,68.98
2022-08-02T00:08:59.432Z,68.98
2022-08-02T00:09:59.417Z,68.98
2022-08-02T00:10:59.407Z,68.98
2022-08-02T00:11:59.384Z,68.88
2022-08-02T00:12:59.399Z,68.88
2022-08-02T00:13:59.370Z,68.88
2022-08-02T00:14:59.342Z,68.88
2022-08-02T00:15:59.328Z,68.88
2022-08-02T00:16:59.318Z,68.88
2022-08-02T00:17:59.312Z,68.88
2022-08-02T00:18:59.586Z,68.78
2022-08-02T00:19:59.277Z,68.78
2022-08-02T00:20:59.268Z,68.78
2022-08-02T00:21:59.252Z,68.78
2022-08-02T00:22:59.248Z,68.78
2022-08-02T00:24:27.640Z,68.78
2022-08-02T00:25:00.248Z,68.78
2022-08-02T00:25:59.203Z,68.68
2022-08-02T00:26:59.201Z,68.68
2022-08-02T00:27:59.178Z,68.58
2022-08-02T00:28:59.174Z,68.58
2022-08-02T00:29:59.152Z,68.58
2022-08-02T00:30:59.138Z,68.28
2022-08-02T00:31:59.123Z,68.48
2022-08-02T00:32:59.112Z,68.48
2022-08-02T00:34:27.363Z,68.58
2022-08-02T00:35:00.130Z,68.68
2022-08-02T00:35:59.073Z,68.68
2022-08-02T00:36:59.068Z,68.78
2022-08-02T00:37:59.044Z,68.78
2022-08-02T00:38:59.044Z,68.78
2022-08-02T00:39:59.024Z,68.78
2022-08-02T00:40:59.006Z,68.68
2022-08-02T00:41:59.002Z,68.68
2022-08-02T00:42:59.007Z,68.68
2022-08-02T00:43:58.968Z,68.78
2022-08-02T00:44:58.955Z,68.68
2022-08-02T00:46:02.798Z,68.68
2022-08-02T00:46:58.941Z,68.68
2022-08-02T00:47:58.916Z,68.58
2022-08-02T00:48:58.933Z,68.58
2022-08-02T00:49:58.899Z,68.58
2022-08-02T00:50:58.879Z,68.58
2022-08-02T00:51:58.864Z,68.48
2022-08-02T00:52:58.854Z,68.58
2022-08-02T00:53:58.839Z,68.58
2022-08-02T00:54:58.829Z,68.58
2022-08-02T00:55:58.817Z,68.58
2022-08-02T00:56:58.801Z,68.68
2022-08-02T00:57:58.787Z,68.68
2022-08-02T00:58:58.775Z,68.68
2022-08-02T00:59:58.769Z,68.68
2022-08-02T01:00:58.810Z,68.68
2022-08-02T01:01:58.782Z,68.68
2022-08-02T01:02:58.721Z,68.58
2022-08-02T01:03:58.719Z,68.58
2022-08-02T01:04:58.712Z,68.68
2022-08-02T01:06:10.845Z,68.68
2022-08-02T01:06:59.703Z,68.58
2022-08-02T01:07:58.655Z,68.58
2022-08-02T01:08:58.642Z,68.58
2022-08-02T01:09:58.631Z,68.58
2022-08-02T01:10:58.617Z,68.58
2022-08-02T01:12:02.747Z,68.58
2022-08-02T01:12:58.590Z,68.68
2022-08-02T01:13:58.581Z,68.68
2022-08-02T01:14:58.574Z,68.58
2022-08-02T01:15:58.561Z,68.58
2022-08-02T01:16:58.550Z,68.58
2022-08-02T01:17:58.534Z,68.58
2022-08-02T01:18:58.524Z,68.58
2022-08-02T01:19:58.504Z,68.68
2022-08-02T01:20:58.488Z,68.68
2022-08-02T01:21:58.483Z,68.58
2022-08-02T01:23:01.700Z,68.58
2022-08-02T01:23:58.450Z,68.58
2022-08-02T01:24:58.446Z,68.58
2022-08-02T01:25:58.424Z,68.58
2022-08-02T01:26:58.411Z,68.58
2022-08-02T01:27:58.408Z,68.58
2022-08-02T01:28:58.391Z,68.58
2022-08-02T01:29:58.371Z,68.61
2022-08-02T01:30:58.355Z,68.61
2022-08-02T01:31:58.354Z,68.61
2022-08-02T01:32:58.334Z,68.61
2022-08-02T01:33:58.318Z,68.61
2022-08-02T01:34:58.314Z,68.58
2022-08-02T01:35:58.294Z,68.61
2022-08-02T01:36:58.280Z,68.61
2022-08-02T01:37:58.277Z,68.58
2022-08-02T01:38:58.262Z,68.61
2022-08-02T01:39:58.252Z,68.51
2022-08-02T01:40:58.235Z,68.51
2022-08-02T01:41:58.854Z,68.51
2022-08-02T01:42:58.210Z,68.61
2022-08-02T01:43:58.200Z,68.51
2022-08-02T01:44:58.177Z,68.61
2022-08-02T01:45:58.167Z,68.51
2022-08-02T01:46:58.160Z,68.41
2022-08-02T01:47:58.138Z,68.51
2022-08-02T01:48:58.190Z,68.51
2022-08-02T01:49:58.115Z,68.61
2022-08-02T01:50:58.099Z,68.61
2022-08-02T01:51:58.087Z,68.61
2022-08-02T01:52:58.074Z,68.61
2022-08-02T01:53:58.062Z,68.61
2022-08-02T01:54:58.047Z,68.61
2022-08-02T01:55:59.109Z,68.61
2022-08-02T01:56:58.033Z,68.61
2022-08-02T01:57:58.020Z,68.61
2022-08-02T01:58:58.006Z,68.61
2022-08-02T01:59:57.982Z,68.61
2022-08-02T02:00:58.078Z,68.51
2022-08-02T02:01:57.970Z,68.51
2022-08-02T02:02:57.953Z,68.51
2022-08-02T02:03:57.944Z,68.51
2022-08-02T02:04:57.928Z,68.61
2022-08-02T02:05:57.941Z,68.61
2022-08-02T02:06:57.892Z,68.61
2022-08-02T02:07:57.882Z,68.61
2022-08-02T02:08:57.868Z,68.61
2022-08-02T02:09:57.855Z,68.61
2022-08-02T02:10:57.841Z,68.61
2022-08-02T02:12:05.990Z,68.61
2022-08-02T02:12:58.849Z,68.61
2022-08-02T02:13:57.801Z,68.71
2022-08-02T02:14:57.801Z,68.71
2022-08-02T02:15:57.775Z,68.71
2022-08-02T02:16:57.774Z,68.61
2022-08-02T02:18:13.067Z,68.61
2022-08-02T02:18:58.776Z,68.71
2022-08-02T02:19:57.727Z,68.61
2022-08-02T02:20:57.721Z,68.61
2022-08-02T02:21:57.701Z,68.61
2022-08-02T02:22:57.697Z,68.61
2022-08-02T02:23:57.676Z,68.61
2022-08-02T02:24:57.663Z,68.61
2022-08-02T02:25:57.647Z,68.61
2022-08-02T02:26:57.644Z,68.61
2022-08-02T02:27:57.622Z,68.71
2022-08-02T02:28:57.611Z,68.61
2022-08-02T02:29:57.604Z,68.61
2022-08-02T02:30:57.587Z,68.61
2022-08-02T02:31:57.571Z,68.61
2022-08-02T02:32:57.556Z,68.61
2022-08-02T02:33:57.545Z,68.61
2022-08-02T02:34:57.534Z,68.61
2022-08-02T02:35:57.537Z,68.61
2022-08-02T02:36:57.502Z,68.61
2022-08-02T02:37:57.490Z,68.61
2022-08-02T02:38:57.480Z,68.61
2022-08-02T02:39:57.475Z,68.61
2022-08-02T02:40:57.461Z,68.61
2022-08-02T02:41:57.444Z,68.61
2022-08-02T02:42:57.435Z,68.61
2022-08-02T02:43:57.429Z,68.61
2022-08-02T02:44:57.399Z,68.61
2022-08-02T02:45:57.396Z,68.61
2022-08-02T02:46:57.373Z,68.61
2022-08-02T02:47:57.359Z,68.61
2022-08-02T02:48:57.419Z,68.61
2022-08-02T02:49:57.345Z,68.61
2022-08-02T02:50:57.318Z,68.61
2022-08-02T02:51:57.318Z,68.61
2022-08-02T02:52:57.294Z,68.61
2022-08-02T02:54:33.118Z,68.61
2022-08-02T02:54:58.301Z,68.61
2022-08-02T02:56:02.289Z,68.61
2022-08-02T02:56:57.253Z,68.61
2022-08-02T02:57:57.227Z,68.61
2022-08-02T02:58:57.214Z,68.61
2022-08-02T02:59:57.202Z,68.61
2022-08-02T03:00:57.226Z,68.61
2022-08-02T03:02:08.254Z,68.61
2022-08-02T03:02:58.212Z,68.61
2022-08-02T03:03:57.150Z,68.61
2022-08-02T03:04:58.227Z,68.61
2022-08-02T03:05:57.133Z,68.61
2022-08-02T03:06:57.107Z,68.61
2022-08-02T03:07:57.097Z,68.61
2022-08-02T03:08:57.084Z,68.61
2022-08-02T03:09:57.071Z,68.61
2022-08-02T03:10:57.064Z,68.61
2022-08-02T03:11:57.045Z,68.61
2022-08-02T03:13:24.377Z,68.61
2022-08-02T03:14:25.399Z,68.61
2022-08-02T03:15:24.351Z,68.61
2022-08-02T03:16:24.337Z,68.61
2022-08-02T03:17:24.325Z,68.61
2022-08-02T03:18:24.313Z,68.61
2022-08-02T03:19:24.298Z,68.65
2022-08-02T03:20:25.330Z,68.61
2022-08-02T03:21:24.274Z,68.61
2022-08-02T03:22:59.211Z,68.61
2022-08-02T03:23:59.197Z,68.65
2022-08-02T03:24:59.185Z,68.65
2022-08-02T03:25:59.173Z,68.65
2022-08-02T03:26:59.162Z,68.61
2022-08-02T03:28:05.152Z,68.65
2022-08-02T03:28:59.135Z,68.65
2022-08-02T03:29:59.122Z,68.54
2022-08-02T03:30:59.111Z,68.54
2022-08-02T03:31:59.097Z,68.65
2022-08-02T03:32:59.085Z,68.54
2022-08-02T03:34:26.119Z,68.61
2022-08-02T03:35:26.114Z,68.65
2022-08-02T03:36:26.091Z,68.65
2022-08-02T03:37:26.077Z,68.65
2022-08-02T03:38:28.916Z,68.65
2022-08-02T03:39:26.052Z,68.65
2022-08-02T03:40:26.040Z,68.65
2022-08-02T03:41:26.037Z,68.65
2022-08-02T03:42:26.013Z,68.65
2022-08-02T03:43:28.616Z,68.54
2022-08-02T03:44:26.137Z,68.54
2022-08-02T03:45:25.988Z,68.65
2022-08-02T03:46:25.982Z,68.65
2022-08-02T03:47:25.950Z,68.65
2022-08-02T03:48:34.624Z,68.65
2022-08-02T03:49:27.072Z,68.65
2022-08-02T03:50:25.912Z,68.54
2022-08-02T03:51:25.905Z,68.65
2022-08-02T03:52:25.896Z,68.65
2022-08-02T03:53:25.873Z,68.54
2022-08-02T03:54:34.527Z,68.65
2022-08-02T03:55:26.885Z,68.65
2022-08-02T03:56:25.833Z,68.65
2022-08-02T03:57:25.830Z,68.65
2022-08-02T03:58:25.806Z,68.54
2022-08-02T03:59:25.794Z,68.54
2022-08-02T04:00:26.818Z,68.54
2022-08-02T04:01:25.858Z,68.54
2022-08-02T04:02:25.758Z,68.54
2022-08-02T04:03:25.744Z,68.54
2022-08-02T04:04:25.731Z,68.45
2022-08-02T04:05:25.726Z,68.45
2022-08-02T04:06:28.415Z,68.54
2022-08-02T04:08:33.893Z,68.45
2022-08-02T04:08:36.263Z,68.45
2022-08-02T04:09:26.704Z,68.45
2022-08-02T04:10:25.651Z,68.45
2022-08-02T04:11:25.640Z,68.45
2022-08-02T04:12:25.626Z,68.45
2022-08-02T04:13:31.239Z,68.45
2022-08-02T04:14:26.643Z,68.45
2022-08-02T04:15:25.587Z,68.34
2022-08-02T04:16:25.574Z,68.34
2022-08-02T04:17:27.614Z,68.34
2022-08-02T04:18:25.548Z,68.34
2022-08-02T04:19:25.534Z,68.34
2022-08-02T04:20:25.530Z,68.34
2022-08-02T04:21:25.518Z,68.34
2022-08-02T04:22:25.504Z,68.34
2022-08-02T04:23:25.491Z,68.34
2022-08-02T04:24:25.788Z,68.34
2022-08-02T04:25:35.737Z,68.24
2022-08-02T04:26:28.470Z,68.24
2022-08-02T04:27:50.974Z,68.24
2022-08-02T04:28:27.667Z,68.24
2022-08-02T04:29:25.409Z,68.24
2022-08-02T04:30:25.400Z,68.24
2022-08-02T04:31:25.389Z,68.24
2022-08-02T04:32:25.369Z,68.14
2022-08-02T04:33:25.354Z,68.14
2022-08-02T04:34:25.351Z,68.11
2022-08-02T04:35:25.334Z,68.14
2022-08-02T04:36:31.273Z,68.01
2022-08-02T04:37:26.352Z,68.01
2022-08-02T04:38:25.290Z,68.01
2022-08-02T04:39:25.278Z,67.91
2022-08-02T04:40:25.272Z,67.81
2022-08-02T04:41:25.249Z,67.81
2022-08-02T04:42:25.242Z,67.81
2022-08-02T04:43:25.227Z,67.81
2022-08-02T04:44:25.211Z,67.81
2022-08-02T04:45:25.201Z,67.71
2022-08-02T04:46:25.195Z,67.71
2022-08-02T04:48:03.448Z,67.71
2022-08-02T04:48:26.195Z,67.71
2022-08-02T04:49:25.250Z,67.81
2022-08-02T04:50:25.128Z,67.81
2022-08-02T04:51:38.180Z,67.81
2022-08-02T04:52:26.151Z,67.81
2022-08-02T04:53:25.093Z,67.81
2022-08-02T04:54:25.078Z,67.81
2022-08-02T04:55:25.070Z,67.81
2022-08-02T04:56:25.051Z,67.81
2022-08-02T04:57:25.043Z,67.81
2022-08-02T04:58:39.886Z,67.81
2022-08-02T04:59:26.065Z,67.81
2022-08-02T05:00:27.161Z,67.81
2022-08-02T05:01:25.000Z,67.81
2022-08-02T05:02:24.985Z,67.81
2022-08-02T05:03:24.975Z,67.71
2022-08-02T05:04:24.960Z,67.71
2022-08-02T05:05:24.941Z,67.71
2022-08-02T05:06:24.924Z,67.71
2022-08-02T05:07:24.918Z,67.71
2022-08-02T05:08:24.897Z,67.61
2022-08-02T05:09:24.891Z,67.61
2022-08-02T05:10:24.870Z,67.61
2022-08-02T05:11:36.065Z,67.61
2022-08-02T05:12:25.880Z,67.61
2022-08-02T05:13:24.829Z,67.51
2022-08-02T05:14:24.819Z,67.51
2022-08-02T05:15:24.806Z,67.51
2022-08-02T05:16:24.789Z,67.51
2022-08-02T05:17:25.819Z,67.51
2022-08-02T05:18:24.767Z,67.51
2022-08-02T05:19:24.757Z,67.51
2022-08-02T05:20:24.749Z,67.41
2022-08-02T05:21:24.738Z,67.41
2022-08-02T05:22:24.709Z,67.30
2022-08-02T05:23:24.731Z,67.30
2022-08-02T05:24:24.693Z,67.30
2022-08-02T05:25:24.673Z,67.21
2022-08-02T05:26:24.668Z,67.21
2022-08-02T05:27:24.653Z,67.10
2022-08-02T05:28:24.630Z,67.10
2022-08-02T05:29:24.620Z,67.01
2022-08-02T05:30:24.615Z,67.01
2022-08-02T05:31:24.624Z,67.01
2022-08-02T05:32:25.215Z,66.97
2022-08-02T05:33:24.564Z,66.87
2022-08-02T05:34:24.553Z,66.87
2022-08-02T05:35:24.538Z,66.77
2022-08-02T05:36:24.536Z,66.77
2022-08-02T05:37:24.524Z,66.67
2022-08-02T05:38:25.986Z,66.67
2022-08-02T05:39:24.495Z,66.67
2022-08-02T05:40:26.236Z,66.57
2022-08-02T05:41:24.465Z,66.47
2022-08-02T05:42:24.450Z,66.47
2022-08-02T05:43:24.443Z,66.47
2022-08-02T05:44:24.425Z,66.47
2022-08-02T05:45:24.417Z,66.47
2022-08-02T05:46:24.399Z,66.47
2022-08-02T05:47:24.391Z,66.37
2022-08-02T05:48:27.869Z,66.27
2022-08-02T05:49:25.452Z,66.27
2022-08-02T05:50:24.718Z,66.27
2022-08-02T05:51:24.335Z,66.17
2022-08-02T05:52:24.327Z,66.17
2022-08-02T05:53:24.304Z,66.07
2022-08-02T05:54:24.302Z,66.07
2022-08-02T05:55:24.275Z,65.97
2022-08-02T05:56:24.367Z,65.84
2022-08-02T05:57:24.254Z,65.87
2022-08-02T05:58:24.247Z,65.84
2022-08-02T05:59:24.232Z,65.74
2022-08-02T06:00:24.218Z,65.74
2022-08-02T06:01:24.316Z,65.64
2022-08-02T06:02:27.426Z,65.64
2022-08-02T06:03:25.213Z,65.53
2022-08-02T06:04:26.224Z,65.53
2022-08-02T06:05:24.149Z,65.44
2022-08-02T06:06:24.132Z,65.33
2022-08-02T06:07:24.129Z,65.33
2022-08-02T06:08:24.715Z,65.33
2022-08-02T06:09:27.224Z,65.24
2022-08-02T06:10:24.088Z,65.24
2022-08-02T06:11:24.076Z,65.14
2022-08-02T06:12:24.057Z,65.24
2022-08-02T06:13:24.041Z,65.24
2022-08-02T06:14:24.028Z,65.24
2022-08-02T06:15:25.048Z,65.24
2022-08-02T06:16:31.632Z,65.14
2022-08-02T06:17:23.989Z,65.14
2022-08-02T06:18:28.235Z,65.24
2022-08-02T06:19:23.961Z,65.24
2022-08-02T06:20:23.948Z,65.24
2022-08-02T06:22:31.754Z,65.24
2022-08-02T06:22:37.151Z,65.24
2022-08-02T06:23:23.911Z,65.24
2022-08-02T06:24:23.894Z,65.14
2022-08-02T06:25:50.163Z,65.14
2022-08-02T06:26:51.958Z,65.14
2022-08-02T06:27:51.938Z,65.03
2022-08-02T06:28:51.931Z,65.03
2022-08-02T06:29:53.980Z,65.03
2022-08-02T06:30:51.908Z,65.03
2022-08-02T06:32:18.931Z,65.03
2022-08-02T06:33:18.919Z,65.03
2022-08-02T06:34:18.914Z,65.03
2022-08-02T06:35:18.897Z,65.03
2022-08-02T06:36:18.878Z,65.14
2022-08-02T06:37:18.874Z,65.14
2022-08-02T06:38:18.860Z,65.14
2022-08-02T06:39:18.839Z,65.14
2022-08-02T06:40:18.829Z,65.14
2022-08-02T06:41:18.814Z,65.14
2022-08-02T06:42:27.230Z,65.14
2022-08-02T06:43:19.833Z,65.14
2022-08-02T06:45:19.805Z,65.14
2022-08-02T06:46:57.043Z,65.14
2022-08-02T06:47:19.774Z,65.14
2022-08-02T06:48:18.725Z,65.14
2022-08-02T06:49:18.810Z,65.14
2022-08-02T06:50:18.702Z,65.14
2022-08-02T06:51:18.684Z,65.14
2022-08-02T06:52:19.241Z,65.24
2022-08-02T06:53:18.666Z,65.24
2022-08-02T06:54:18.645Z,65.24
2022-08-02T06:55:18.651Z,65.24
2022-08-02T06:56:18.633Z,65.24
2022-08-02T06:57:18.704Z,65.24
2022-08-02T06:58:18.597Z,65.33
2022-08-02T06:59:18.576Z,65.33
2022-08-02T07:00:18.562Z,65.33
2022-08-02T07:01:18.637Z,65.33
2022-08-02T07:02:18.536Z,65.33
2022-08-02T07:03:18.530Z,65.33
2022-08-02T07:04:20.276Z,65.33
2022-08-02T07:05:18.504Z,65.33
2022-08-02T07:06:18.485Z,65.33
2022-08-02T07:07:18.481Z,65.44
2022-08-02T07:08:18.458Z,65.33
2022-08-02T07:09:21.169Z,65.44
2022-08-02T07:10:18.453Z,65.44
2022-08-02T07:11:18.425Z,65.44
2022-08-02T07:12:18.402Z,65.53
2022-08-02T07:13:18.397Z,65.64
2022-08-02T07:14:18.382Z,65.64
2022-08-02T07:15:18.363Z,65.97
2022-08-02T07:16:18.357Z,65.97
2022-08-02T07:17:18.345Z,66.17
2022-08-02T07:18:18.331Z,66.17
2022-08-02T07:19:18.312Z,66.17
2022-08-02T07:20:18.300Z,66.37
2022-08-02T07:21:18.284Z,66.37
2022-08-02T07:22:19.308Z,66.27
2022-08-02T07:23:18.267Z,66.27
2022-08-02T07:24:18.246Z,66.27
2022-08-02T07:25:18.241Z,66.27
2022-08-02T07:26:18.227Z,66.17
2022-08-02T07:27:18.358Z,66.57
2022-08-02T07:28:23.607Z,66.67
2022-08-02T07:29:19.228Z,66.77
2022-08-02T07:30:18.175Z,66.77
2022-08-02T07:31:18.154Z,66.77
2022-08-02T07:32:18.152Z,66.67
2022-08-02T07:33:39.001Z,66.77
2022-08-02T07:34:19.165Z,66.77
2022-08-02T07:35:19.225Z,66.77
2022-08-02T07:36:22.345Z,66.77
2022-08-02T07:37:36.096Z,66.87
2022-08-02T07:38:19.099Z,66.77
2022-08-02T07:39:18.054Z,66.67
2022-08-02T07:40:20.078Z,66.67
2022-08-02T07:41:18.032Z,66.57
2022-08-02T07:42:18.010Z,66.67
2022-08-02T07:43:18.007Z,66.57
2022-08-02T07:44:17.983Z,66.47
2022-08-02T07:45:17.970Z,66.37
2022-08-02T07:46:17.958Z,66.37
2022-08-02T07:47:17.944Z,66.37
2022-08-02T07:48:17.931Z,66.37
2022-08-02T07:49:17.971Z,66.27
2022-08-02T07:50:17.905Z,66.27
2022-08-02T07:51:17.903Z,66.27
2022-08-02T07:52:17.887Z,66.17
2022-08-02T07:53:17.864Z,66.17
2022-08-02T07:54:17.852Z,66.17
2022-08-02T07:55:17.858Z,66.17
2022-08-02T07:56:17.824Z,66.77
2022-08-02T07:57:17.809Z,66.37
2022-08-02T07:58:17.805Z,66.77
2022-08-02T07:59:17.786Z,66.27
2022-08-02T08:00:17.837Z,66.17
2022-08-02T08:01:17.817Z,66.24
2022-08-02T08:02:17.757Z,66.04
2022-08-02T08:03:17.733Z,65.94
2022-08-02T08:04:17.725Z,65.74
2022-08-02T08:05:17.707Z,65.84
2022-08-02T08:06:17.694Z,65.84
2022-08-02T08:07:17.680Z,65.84
2022-08-02T08:08:17.925Z,65.84
2022-08-02T08:09:17.655Z,65.84
2022-08-02T08:10:17.645Z,65.84
2022-08-02T08:11:17.638Z,65.97
2022-08-02T08:12:17.620Z,65.97
2022-08-02T08:13:17.611Z,65.97
2022-08-02T08:14:17.600Z,65.97
2022-08-02T08:15:17.579Z,66.17
2022-08-02T08:16:17.568Z,66.17
2022-08-02T08:17:17.554Z,65.87
2022-08-02T08:18:17.539Z,65.97
2022-08-02T08:19:17.526Z,65.97
2022-08-02T08:20:17.572Z,65.87
2022-08-02T08:21:17.501Z,65.64
2022-08-02T08:22:17.485Z,65.64
2022-08-02T08:23:17.487Z,65.53
2022-08-02T08:24:17.510Z,65.64
2022-08-02T08:25:17.469Z,65.64
2022-08-02T08:26:17.467Z,65.64
2022-08-02T08:27:17.467Z,65.53
2022-08-02T08:28:17.408Z,65.64
2022-08-02T08:29:17.413Z,65.53
2022-08-02T08:30:17.397Z,65.33
2022-08-02T08:31:17.404Z,65.53
2022-08-02T08:32:18.702Z,65.53
2022-08-02T08:33:17.365Z,65.53
2022-08-02T08:34:17.341Z,65.44
2022-08-02T08:35:17.325Z,65.44
2022-08-02T08:36:17.307Z,65.33
2022-08-02T08:37:18.581Z,65.33
2022-08-02T08:38:17.279Z,65.03
2022-08-02T08:39:17.266Z,64.94
2022-08-02T08:40:19.353Z,64.73
2022-08-02T08:41:17.238Z,64.83
2022-08-02T08:42:17.224Z,65.03
2022-08-02T08:43:17.215Z,65.03
2022-08-02T08:44:17.207Z,64.73
2022-08-02T08:45:17.186Z,64.53
2022-08-02T08:46:17.175Z,64.63
2022-08-02T08:47:17.162Z,64.13
2022-08-02T08:48:30.354Z,64.33
2022-08-02T08:49:18.239Z,64.23
2022-08-02T08:50:22.688Z,64.13
2022-08-02T08:51:18.187Z,64.03
2022-08-02T08:52:17.097Z,64.13
2022-08-02T08:53:17.082Z,64.23
2022-08-02T08:54:17.078Z,64.23
2022-08-02T08:55:17.058Z,64.23
2022-08-02T08:56:17.044Z,64.23
2022-08-02T08:57:17.043Z,64.23
2022-08-02T08:58:17.017Z,64.23
2022-08-02T08:59:17.016Z,64.23
2022-08-02T09:00:16.991Z,64.13
2022-08-02T09:01:17.217Z,64.03
2022-08-02T09:02:21.530Z,64.00
2022-08-02T09:03:16.953Z,63.90
2022-08-02T09:04:16.940Z,64.03
2022-08-02T09:05:16.928Z,64.03
2022-08-02T09:06:16.923Z,64.03
2022-08-02T09:07:16.899Z,63.93
2022-08-02T09:08:17.264Z,63.93
2022-08-02T09:09:16.885Z,63.93
2022-08-02T09:10:16.868Z,63.93
2022-08-02T09:11:16.861Z,64.00
2022-08-02T09:12:16.842Z,63.90
2022-08-02T09:13:37.859Z,63.80
2022-08-02T09:14:17.840Z,63.90
2022-08-02T09:15:16.806Z,63.90
2022-08-02T09:16:16.787Z,63.90
2022-08-02T09:17:16.771Z,63.80
2022-08-02T09:18:16.760Z,63.80
2022-08-02T09:19:16.753Z,63.93
2022-08-02T09:20:16.816Z,63.93
2022-08-02T09:21:17.125Z,63.93
2022-08-02T09:22:16.934Z,63.90
2022-08-02T09:23:16.704Z,63.93
2022-08-02T09:24:16.682Z,64.03
2022-08-02T09:25:16.667Z,63.40
2022-08-02T09:26:16.664Z,63.70
2022-08-02T09:27:16.650Z,63.40
2022-08-02T09:28:16.637Z,63.30
2022-08-02T09:29:16.630Z,63.50
2022-08-02T09:30:16.720Z,63.40
2022-08-02T09:31:16.591Z,63.20
2022-08-02T09:32:16.578Z,63.20
2022-08-02T09:33:16.572Z,63.00
2022-08-02T09:34:19.849Z,63.30
2022-08-02T09:35:16.548Z,63.50
2022-08-02T09:36:16.534Z,63.40
2022-08-02T09:37:16.524Z,63.50
2022-08-02T09:38:16.504Z,63.30
2022-08-02T09:39:16.491Z,63.60
2022-08-02T09:40:16.579Z,63.50
2022-08-02T09:41:16.461Z,63.50
2022-08-02T09:42:16.451Z,63.40
2022-08-02T09:43:16.446Z,63.50
2022-08-02T09:44:16.434Z,63.50
2022-08-02T09:45:16.409Z,63.50
2022-08-02T09:46:16.395Z,62.70
2022-08-02T09:47:16.386Z,62.20
2022-08-02T09:48:16.373Z,62.50
2022-08-02T09:49:16.398Z,62.60
2022-08-02T09:50:16.360Z,62.79
2022-08-02T09:51:16.331Z,62.79
2022-08-02T09:52:16.319Z,62.70
2022-08-02T09:53:16.322Z,63.20
2022-08-02T09:54:16.295Z,63.00
2022-08-02T09:55:16.279Z,62.79
2022-08-02T09:56:35.705Z,62.90
2022-08-02T09:57:17.291Z,62.79
2022-08-02T09:58:16.241Z,62.60
2022-08-02T09:59:16.229Z,62.40
2022-08-02T10:00:20.413Z,62.70
2022-08-02T10:01:17.353Z,62.60
2022-08-02T10:02:22.564Z,62.79
2022-08-02T10:03:21.510Z,62.90
2022-08-02T10:04:21.751Z,63.00
2022-08-02T10:05:16.160Z,62.50
2022-08-02T10:06:16.141Z,61.19
2022-08-02T10:07:16.134Z,61.39
2022-08-02T10:08:16.113Z,61.26
2022-08-02T10:09:16.107Z,61.16
2022-08-02T10:10:16.098Z,60.86
2022-08-02T10:11:16.074Z,60.66
2022-08-02T10:12:16.063Z,60.56
2022-08-02T10:13:21.628Z,60.46
2022-08-02T10:14:17.079Z,60.36
2022-08-02T10:15:16.024Z,60.56
2022-08-02T10:16:16.010Z,60.56
2022-08-02T10:17:16.001Z,60.96
2022-08-02T10:18:37.072Z,61.16
2022-08-02T10:19:17.018Z,61.26
2022-08-02T10:20:15.954Z,60.96
2022-08-02T10:21:15.950Z,60.16
2022-08-02T10:22:17.019Z,60.06
2022-08-02T10:23:15.923Z,60.36
2022-08-02T10:24:15.910Z,60.86
2022-08-02T10:25:15.886Z,60.96
2022-08-02T10:26:15.883Z,60.66
2022-08-02T10:27:15.869Z,60.06
2022-08-02T10:28:16.679Z,59.93
2022-08-02T10:29:15.841Z,60.16
2022-08-02T10:30:15.820Z,60.13
2022-08-02T10:31:15.810Z,60.36
2022-08-02T10:32:15.795Z,60.56
2022-08-02T10:33:15.788Z,60.66
2022-08-02T10:34:15.766Z,60.76
2022-08-02T10:35:20.232Z,60.76
2022-08-02T10:36:16.782Z,60.76
2022-08-02T10:37:15.724Z,60.86
2022-08-02T10:38:15.714Z,61.06
2022-08-02T10:39:15.697Z,60.96
2022-08-02T10:40:15.694Z,60.66
2022-08-02T10:41:15.672Z,60.36
2022-08-02T10:42:15.668Z,60.66
2022-08-02T10:43:15.645Z,60.66
2022-08-02T10:44:24.156Z,60.66
2022-08-02T10:45:16.658Z,60.36
2022-08-02T10:46:15.611Z,60.46
2022-08-02T10:47:15.589Z,60.36
2022-08-02T10:48:15.588Z,60.36
2022-08-02T10:50:15.692Z,60.06
2022-08-02T10:51:15.553Z,59.96
2022-08-02T10:52:16.162Z,59.96
2022-08-02T10:53:15.507Z,59.86
2022-08-02T10:54:15.494Z,60.06
2022-08-02T10:55:22.083Z,60.16
2022-08-02T10:56:16.515Z,60.16
2022-08-02T10:57:15.611Z,59.76
2022-08-02T10:58:15.440Z,58.33
2022-08-02T10:59:15.424Z,58.93
2022-08-02T11:00:17.300Z,57.83
2022-08-02T11:01:15.462Z,57.62
2022-08-02T11:02:15.660Z,58.33
2022-08-02T11:03:15.371Z,57.42
2022-08-02T11:04:15.424Z,58.33
2022-08-02T11:05:15.354Z,58.12
2022-08-02T11:06:25.835Z,58.03
2022-08-02T11:07:15.319Z,57.92
2022-08-02T11:08:15.314Z,57.92
2022-08-02T11:09:15.289Z,57.73
2022-08-02T11:10:15.274Z,57.83
2022-08-02T11:11:15.262Z,58.33
2022-08-02T11:12:15.725Z,58.33
2022-08-02T11:13:15.242Z,58.33
2022-08-02T11:14:15.230Z,58.63
2022-08-02T11:15:15.211Z,58.23
2022-08-02T11:16:15.194Z,58.23
2022-08-02T11:17:15.179Z,58.63
2022-08-02T11:18:15.168Z,58.33
2022-08-02T11:19:15.162Z,58.42
2022-08-02T11:20:15.138Z,58.53
2022-08-02T11:21:15.134Z,58.23
2022-08-02T11:22:15.474Z,57.62
2022-08-02T11:23:15.108Z,57.92
2022-08-02T11:24:21.093Z,58.03
2022-08-02T11:25:15.071Z,57.92
2022-08-02T11:26:17.117Z,57.83
2022-08-02T11:27:15.045Z,57.92
2022-08-02T11:28:15.028Z,57.83
2022-08-02T11:29:16.031Z,57.83
2022-08-02T11:30:15.007Z,57.62
2022-08-02T11:31:14.993Z,57.53
2022-08-02T11:32:15.388Z,57.12
2022-08-02T11:33:14.971Z,56.79
2022-08-02T11:34:28.963Z,56.79
2022-08-02T11:35:15.971Z,56.90
2022-08-02T11:36:14.947Z,56.79
2022-08-02T11:37:14.909Z,56.70
2022-08-02T11:38:14.905Z,56.70
2022-08-02T11:39:15.903Z,56.59
2022-08-02T11:40:19.464Z,56.59
2022-08-02T11:41:14.880Z,56.70
2022-08-02T11:42:15.921Z,56.50
2022-08-02T11:43:14.825Z,56.50
2022-08-02T11:44:14.812Z,56.50
2022-08-02T11:45:21.353Z,56.50
2022-08-02T11:46:15.824Z,56.50
2022-08-02T11:47:14.781Z,56.40
2022-08-02T11:48:14.758Z,56.29
2022-08-02T11:49:14.847Z,56.09
2022-08-02T11:50:14.738Z,55.99
2022-08-02T11:51:14.720Z,55.99
2022-08-02T11:52:15.101Z,55.59
2022-08-02T11:53:14.700Z,55.79
2022-08-02T11:54:14.676Z,55.99
2022-08-02T11:55:14.671Z,55.99
2022-08-02T11:56:14.649Z,55.99
2022-08-02T11:57:19.686Z,56.29
2022-08-02T11:58:14.620Z,56.09
2022-08-02T11:59:14.803Z,56.09
2022-08-02T12:00:14.598Z,55.70
2022-08-02T12:01:14.794Z,55.70
2022-08-02T12:02:15.119Z,55.79
2022-08-02T12:03:19.543Z,55.99
2022-08-02T12:04:14.541Z,55.99
2022-08-02T12:05:14.529Z,55.90
2022-08-02T12:06:16.758Z,55.70
2022-08-02T12:07:15.009Z,55.70
2022-08-02T12:08:14.490Z,55.70
2022-08-02T12:09:17.877Z,55.70
2022-08-02T12:10:16.928Z,55.90
2022-08-02T12:11:14.448Z,56.07
2022-08-02T12:12:14.949Z,55.97
2022-08-02T12:13:14.419Z,55.97
2022-08-02T12:14:14.403Z,56.07
2022-08-02T12:15:14.388Z,55.77
2022-08-02T12:16:14.385Z,55.87
2022-08-02T12:17:14.365Z,55.67
2022-08-02T12:18:14.354Z,55.67
2022-08-02T12:19:14.510Z,55.67
2022-08-02T12:20:14.320Z,55.77
2022-08-02T12:21:14.461Z,55.67
2022-08-02T12:22:14.806Z,55.57
2022-08-02T12:23:14.289Z,55.57
2022-08-02T12:24:14.266Z,54.87
2022-08-02T12:25:14.252Z,54.97
2022-08-02T12:26:15.845Z,54.57
2022-08-02T12:27:14.228Z,54.77
2022-08-02T12:28:17.346Z,54.27
2022-08-02T12:29:16.250Z,54.57
2022-08-02T12:30:15.219Z,54.66
2022-08-02T12:31:14.257Z,54.66
2022-08-02T12:32:14.589Z,53.57
2022-08-02T12:33:16.196Z,54.27
2022-08-02T12:34:14.147Z,54.87
2022-08-02T12:35:14.116Z,55.07
2022-08-02T12:36:14.131Z,55.16
2022-08-02T12:37:14.099Z,55.16
2022-08-02T12:38:14.085Z,54.77
2022-08-02T12:39:14.070Z,55.07
2022-08-02T12:40:14.072Z,55.16
2022-08-02T12:41:31.081Z,55.16
2022-08-02T12:42:15.810Z,55.16
2022-08-02T12:43:14.007Z,55.07
2022-08-02T12:44:13.992Z,54.37
2022-08-02T12:45:13.990Z,54.47
2022-08-02T12:46:13.970Z,54.77
2022-08-02T12:47:13.949Z,54.57
2022-08-02T12:48:13.946Z,54.57
2022-08-02T12:49:18.664Z,54.57
2022-08-02T12:50:14.142Z,54.34
2022-08-02T12:51:13.907Z,54.16
2022-08-02T12:52:14.226Z,53.74
2022-08-02T12:53:13.867Z,53.96
2022-08-02T12:54:13.854Z,53.74
2022-08-02T12:55:13.870Z,53.74
2022-08-02T12:56:13.832Z,53.14
2022-08-02T12:57:13.878Z,53.24